Portada
METAR-TAF:

METAR-TAF

Aeropuertos :

Bushehr, Irán

latitud: 28-59N, longitud: 050-50E, altitud: 19 m

Observación

El informe se hizo hace 2 horas y 52 minutos, a las 20:00 UTC
Viento 4 kt del este-sureste
Temperatura 21°C
Humedad 40%
Presión 1015 hPa
Visibilidad 10 km o más
sin nubes por debajo de 1500 m y sin presencia de cumulonimbus.

METAR: OIBB 312000Z 12004KT CAVOK 21/07 Q1015 A2998

Hora: 03:22 (22:52 UTC)


TAF: falta

Observaciones y pronósticos meteorológicos de más de 4000 aeropuertos (mensajes METAR y TAF).

Los puntos amarillos y rojos representan las estaciones disponibles.

Ponga el ratón en el punto deseado para ver el nombre de la estación.

Haga clic para ver las observaciones y los pronósticos meteorológicos.

Para cambiar el mapa : haga clic en los botones verdes con una cruz de color negro para hacer un zoom, en el botón verde con un guión para alejar o en las flechas verdes para mapas adyacentes.


METAR-TAF: